Time;durP1;ratioP1;P1;durP2;ratioP2;P2;SDS_P1;SDS_P2;PMS_P1;PMS_P2;Temp;Humidity;BMP_temperature;BMP_pressure;BME280_temperature;BME280_humidity;BME280_pressure;Samples;Min_cycle;Max_cycle;Signal;HPM_P1;HPM_P2
2023/12/24 00:00:19;;;;;;;;;;;;;;;;;;5107585;28;20327;-57
2023/12/24 00:02:45;;;;;;;;;;;;;;;;;;5109893;28;19920;-59
2023/12/24 00:05:11;;;;;;;;;;;;;;;;;;5109368;28;19972;-60
2023/12/24 00:07:37;;;;;;;;;;;;;;;;;;5107848;28;19966;-59
2023/12/24 00:10:03;;;;;;;;;;;;;;;;;;5105614;28;19916;-59
2023/12/24 00:12:29;;;;;;;;;;;;;;;;;;5109217;28;19918;-59
2023/12/24 00:14:55;;;;;;;;;;;;;;;;;;5108364;28;19916;-60
2023/12/24 00:17:21;;;;;;;;;;;;;;;;;;5098757;28;19939;-60
2023/12/24 00:19:47;;;;;;;;;;;;;;;;;;5108605;28;19916;-60
2023/12/24 00:22:13;;;;;;;;;;;;;;;;;;5108407;28;20006;-62
2023/12/24 00:24:39;;;;;;;;;;;;;;;;;;5101216;28;20367;-60
2023/12/24 00:27:05;;;;;;;;;;;;;;;;;;5107420;28;20379;-60
2023/12/24 00:29:31;;;;;;;;;;;;;;;;;;5096768;28;19917;-60
2023/12/24 00:31:56;;;;;;;;;;;;;;;;;;5102574;28;19981;-60
2023/12/24 00:34:22;;;;;;;;;;;;;;;;;;5090972;28;20015;-63
2023/12/24 00:36:48;;;;;;;;;;;;;;;;;;5096461;28;19912;-59
2023/12/24 00:39:14;;;;;;;;;;;;;;;;;;5098880;28;19908;-62
2023/12/24 00:41:40;;;;;;;;;;;;;;;;;;5095467;28;19920;-58
2023/12/24 00:44:06;;;;;;;;;;;;;;;;;;5093249;28;19962;-58
2023/12/24 00:46:32;;;;;;;;;;;;;;;;;;5094638;28;20399;-62
2023/12/24 00:48:58;;;;;;;;;;;;;;;;;;5085527;28;20066;-60
2023/12/24 00:51:24;;;;;;;;;;;;;;;;;;5083826;28;19914;-65
2023/12/24 00:53:50;;;;;;;;;;;;;;;;;;5093969;28;20377;-58
2023/12/24 00:56:16;;;;;;;;;;;;;;;;;;5094934;28;20392;-58
2023/12/24 00:58:42;;;;;;;;;;;;;;;;;;5094399;28;19912;-59
2023/12/24 01:01:08;;;;;;;;;;;;;;;;;;5094810;28;19959;-59
2023/12/24 01:03:34;;;;;;;;;;;;;;;;;;5093474;28;19912;-60
2023/12/24 01:06:00;;;;;;;;;;;;;;;;;;5093003;28;19947;-60
2023/12/24 01:08:26;;;;;;;;;;;;;;;;;;5091084;28;20400;-62
2023/12/24 01:10:52;;;;;;;;;;;;;;;;;;5089722;28;19954;-60
2023/12/24 01:13:19;;;;;;;;;;;;;;;;;;5089992;28;20391;-59
2023/12/24 01:15:45;;;;;;;;;;;;;;;;;;5081618;28;20466;-59
2023/12/24 01:18:11;;;;;;;;;;;;;;;;;;5092259;28;19912;-59
2023/12/24 01:20:37;;;;;;;;;;;;;;;;;;5086601;28;20279;-64
2023/12/24 01:23:03;;;;;;;;;;;;;;;;;;5092050;28;19912;-64
2023/12/24 01:25:29;;;;;;;;;;;;;;;;;;5093395;28;19918;-63
2023/12/24 01:27:54;;;;;;;;;;;;;;;;;;5093893;28;19970;-63
2023/12/24 01:30:20;;;;;;;;;;;;;;;;;;5092520;28;19912;-63
2023/12/24 01:32:46;;;;;;;;;;;;;;;;;;5081127;28;19968;-64
2023/12/24 01:35:12;;;;;;;;;;;;;;;;;;5093857;28;19944;-63
2023/12/24 01:37:38;;;;;;;;;;;;;;;;;;5084249;28;21587;-63
2023/12/24 01:40:04;;;;;;;;;;;;;;;;;;5087646;28;19912;-63
2023/12/24 01:42:30;;;;;;;;;;;;;;;;;;5093555;28;19920;-63
2023/12/24 01:44:56;;;;;;;;;;;;;;;;;;5094039;28;19912;-63
2023/12/24 01:47:22;;;;;;;;;;;;;;;;;;5094235;28;19994;-63
2023/12/24 01:49:47;;;;;;;;;;;;;;;;;;5092784;28;19912;-63
2023/12/24 01:52:13;;;;;;;;;;;;;;;;;;5091253;28;20342;-63
2023/12/24 01:54:39;;;;;;;;;;;;;;;;;;5092332;28;20012;-63
2023/12/24 01:57:05;;;;;;;;;;;;;;;;;;5093230;28;19912;-63
2023/12/24 01:59:31;;;;;;;;;;;;;;;;;;5092283;28;20383;-63
2023/12/24 02:01:57;;;;;;;;;;;;;;;;;;5093591;28;19916;-63
2023/12/24 02:04:23;;;;;;;;;;;;;;;;;;5081205;28;19939;-63
2023/12/24 02:06:49;;;;;;;;;;;;;;;;;;5091902;28;19995;-63
2023/12/24 02:09:15;;;;;;;;;;;;;;;;;;5090591;28;20378;-63
2023/12/24 02:11:41;;;;;;;;;;;;;;;;;;5087988;28;19959;-63
2023/12/24 02:14:07;;;;;;;;;;;;;;;;;;5083095;28;19912;-63
2023/12/24 02:16:33;;;;;;;;;;;;;;;;;;5078509;28;20013;-63
2023/12/24 02:18:58;;;;;;;;;;;;;;;;;;5090879;28;19922;-63
2023/12/24 02:21:24;;;;;;;;;;;;;;;;;;5083081;28;19916;-64
2023/12/24 02:23:50;;;;;;;;;;;;;;;;;;5092271;28;19981;-63
2023/12/24 02:26:16;;;;;;;;;;;;;;;;;;5092573;28;19912;-63
2023/12/24 02:28:42;;;;;;;;;;;;;;;;;;5084995;28;20372;-64
2023/12/24 02:31:08;;;;;;;;;;;;;;;;;;5082475;28;19958;-62
2023/12/24 02:33:34;;;;;;;;;;;;;;;;;;5092593;28;20265;-62
2023/12/24 02:36:00;;;;;;;;;;;;;;;;;;5092167;28;19955;-63
2023/12/24 02:38:26;;;;;;;;;;;;;;;;;;5087769;28;19947;-63
2023/12/24 02:40:52;;;;;;;;;;;;;;;;;;5081637;28;19916;-63
2023/12/24 02:43:18;;;;;;;;;;;;;;;;;;5090305;28;19920;-63
2023/12/24 02:45:44;;;;;;;;;;;;;;;;;;5082572;28;20343;-63
2023/12/24 02:48:10;;;;;;;;;;;;;;;;;;5091275;28;19922;-63
2023/12/24 02:50:36;;;;;;;;;;;;;;;;;;5091248;28;20299;-63
2023/12/24 02:53:02;;;;;;;;;;;;;;;;;;5088612;28;19920;-62
2023/12/24 02:55:28;;;;;;;;;;;;;;;;;;5091164;28;19951;-63
2023/12/24 02:57:54;;;;;;;;;;;;;;;;;;5091712;28;19912;-63
2023/12/24 03:00:20;;;;;;;;;;;;;;;;;;5091330;28;19918;-62
2023/12/24 03:02:46;;;;;;;;;;;;;;;;;;5087146;28;20398;-63
2023/12/24 03:05:11;;;;;;;;;;;;;;;;;;5078512;28;19963;-62
2023/12/24 03:07:37;;;;;;;;;;;;;;;;;;5080082;28;19955;-62
2023/12/24 03:10:03;;;;;;;;;;;;;;;;;;5090235;28;20397;-63
2023/12/24 03:12:29;;;;;;;;;;;;;;;;;;5090403;28;19951;-62
2023/12/24 03:14:55;;;;;;;;;;;;;;;;;;5092018;28;20012;-62
2023/12/24 03:17:21;;;;;;;;;;;;;;;;;;5089719;28;19972;-63
2023/12/24 03:19:47;;;;;;;;;;;;;;;;;;5090209;28;19920;-63
2023/12/24 03:22:13;;;;;;;;;;;;;;;;;;5092322;28;20344;-63
2023/12/24 03:24:39;;;;;;;;;;;;;;;;;;5090915;28;20019;-63
2023/12/24 03:27:05;;;;;;;;;;;;;;;;;;5089328;28;19970;-63
2023/12/24 03:29:32;;;;;;;;;;;;;;;;;;5091439;28;19916;-63
2023/12/24 03:31:58;;;;;;;;;;;;;;;;;;5091657;28;20186;-62
2023/12/24 03:34:23;;;;;;;;;;;;;;;;;;5092055;28;20046;-62
2023/12/24 03:36:49;;;;;;;;;;;;;;;;;;5088784;28;20284;-63
2023/12/24 03:39:15;;;;;;;;;;;;;;;;;;5087972;28;19919;-62
2023/12/24 03:41:41;;;;;;;;;;;;;;;;;;5090094;28;20003;-62
2023/12/24 03:44:07;;;;;;;;;;;;;;;;;;5091452;28;19912;-62
2023/12/24 03:46:33;;;;;;;;;;;;;;;;;;5090927;28;19916;-62
2023/12/24 03:48:59;;;;;;;;;;;;;;;;;;5091144;28;19923;-63
2023/12/24 03:51:25;;;;;;;;;;;;;;;;;;5088352;28;19912;-62
2023/12/24 03:53:51;;;;;;;;;;;;;;;;;;5089863;28;19917;-62
2023/12/24 03:56:17;;;;;;;;;;;;;;;;;;5091651;28;19923;-63
2023/12/24 03:58:43;;;;;;;;;;;;;;;;;;5083710;28;19951;-62
2023/12/24 04:01:09;;;;;;;;;;;;;;;;;;5091128;28;19969;-62
2023/12/24 04:03:35;;;;;;;;;;;;;;;;;;5091907;28;19959;-62
2023/12/24 04:06:01;;;;;;;;;;;;;;;;;;5091416;28;21635;-62
2023/12/24 04:08:27;;;;;;;;;;;;;;;;;;5089457;28;20028;-62
2023/12/24 04:10:53;;;;;;;;;;;;;;;;;;5090580;28;19916;-62
2023/12/24 04:13:19;;;;;;;;;;;;;;;;;;5091593;28;20398;-62
2023/12/24 04:15:45;;;;;;;;;;;;;;;;;;5093990;28;19955;-63
2023/12/24 04:18:10;;;;;;;;;;;;;;;;;;5095740;28;20375;-63
2023/12/24 04:20:38;;;;;;;;;;;;;;;;;;5080959;28;19964;-62
2023/12/24 04:23:04;;;;;;;;;;;;;;;;;;5094207;28;19916;-63
2023/12/24 04:25:30;;;;;;;;;;;;;;;;;;5094970;28;19916;-63
2023/12/24 04:27:56;;;;;;;;;;;;;;;;;;5092948;28;19920;-62
2023/12/24 04:30:22;;;;;;;;;;;;;;;;;;5094164;28;19919;-62
2023/12/24 04:32:48;;;;;;;;;;;;;;;;;;5092102;28;20002;-62
2023/12/24 04:35:13;;;;;;;;;;;;;;;;;;5093924;28;19927;-62
2023/12/24 04:37:39;;;;;;;;;;;;;;;;;;5093340;28;19916;-62
2023/12/24 04:40:05;;;;;;;;;;;;;;;;;;5087906;28;19946;-62
2023/12/24 04:42:31;;;;;;;;;;;;;;;;;;5094486;28;19999;-63
2023/12/24 04:44:57;;;;;;;;;;;;;;;;;;5087260;28;19955;-62
2023/12/24 04:47:23;;;;;;;;;;;;;;;;;;5093413;28;19933;-62
2023/12/24 04:49:49;;;;;;;;;;;;;;;;;;5092025;28;20057;-59
2023/12/24 04:52:15;;;;;;;;;;;;;;;;;;5094866;28;19916;-58
2023/12/24 04:54:41;;;;;;;;;;;;;;;;;;5094100;28;19962;-59
2023/12/24 04:57:07;;;;;;;;;;;;;;;;;;5093172;28;19913;-59
2023/12/24 04:59:33;;;;;;;;;;;;;;;;;;5093449;28;21040;-59
2023/12/24 05:01:59;;;;;;;;;;;;;;;;;;5088625;28;20376;-58
2023/12/24 05:04:27;;;;;;;;;;;;;;;;;;5084804;28;20010;-58
2023/12/24 05:06:52;;;;;;;;;;;;;;;;;;5091568;28;19977;-58
2023/12/24 05:09:19;;;;;;;;;;;;;;;;;;5090010;28;19951;-59
2023/12/24 05:11:45;;;;;;;;;;;;;;;;;;5089969;28;19924;-60
2023/12/24 05:14:11;;;;;;;;;;;;;;;;;;5091996;28;19917;-59
2023/12/24 05:16:37;;;;;;;;;;;;;;;;;;5083404;28;19920;-58
2023/12/24 05:19:03;;;;;;;;;;;;;;;;;;5089875;28;19913;-58
2023/12/24 05:21:29;;;;;;;;;;;;;;;;;;5091185;28;20394;-58
2023/12/24 05:23:55;;;;;;;;;;;;;;;;;;5092657;28;19919;-58
2023/12/24 05:26:21;;;;;;;;;;;;;;;;;;5090299;28;20299;-58
2023/12/24 05:28:47;;;;;;;;;;;;;;;;;;5093877;28;19951;-58
2023/12/24 05:31:13;;;;;;;;;;;;;;;;;;5088005;28;20375;-59
2023/12/24 05:33:39;;;;;;;;;;;;;;;;;;5083148;28;20003;-58
2023/12/24 05:36:05;;;;;;;;;;;;;;;;;;5092649;28;19920;-58
2023/12/24 05:38:31;;;;;;;;;;;;;;;;;;5093733;28;19939;-58
2023/12/24 05:40:57;;;;;;;;;;;;;;;;;;5089423;28;20003;-58
2023/12/24 05:43:23;;;;;;;;;;;;;;;;;;5092995;28;20390;-59
2023/12/24 05:45:49;;;;;;;;;;;;;;;;;;5090902;28;19912;-59
2023/12/24 05:48:15;;;;;;;;;;;;;;;;;;5090834;28;19947;-58
2023/12/24 05:50:40;;;;;;;;;;;;;;;;;;5091295;28;20016;-59
2023/12/24 05:53:06;;;;;;;;;;;;;;;;;;5093405;28;20368;-58
2023/12/24 05:55:32;;;;;;;;;;;;;;;;;;5092884;28;19918;-58
2023/12/24 05:57:58;;;;;;;;;;;;;;;;;;5087267;28;20595;-58
2023/12/24 06:00:24;;;;;;;;;;;;;;;;;;5088281;28;19916;-62
2023/12/24 06:02:50;;;;;;;;;;;;;;;;;;5092725;28;20333;-62
2023/12/24 06:05:16;;;;;;;;;;;;;;;;;;5093076;28;19936;-63
2023/12/24 06:07:42;;;;;;;;;;;;;;;;;;5086490;28;19959;-63
2023/12/24 06:10:08;;;;;;;;;;;;;;;;;;5084834;28;20399;-62
2023/12/24 06:12:34;;;;;;;;;;;;;;;;;;5090120;28;19916;-62
2023/12/24 06:15:01;;;;;;;;;;;;;;;;;;5091539;28;20291;-63
2023/12/24 06:17:27;;;;;;;;;;;;;;;;;;5093325;28;19915;-62
2023/12/24 06:19:53;;;;;;;;;;;;;;;;;;5092834;28;19916;-62
2023/12/24 06:22:19;;;;;;;;;;;;;;;;;;5084019;28;19964;-63
2023/12/24 06:24:45;;;;;;;;;;;;;;;;;;5092215;28;19912;-62
2023/12/24 06:27:11;;;;;;;;;;;;;;;;;;5091927;28;19927;-62
2023/12/24 06:29:37;;;;;;;;;;;;;;;;;;5090435;28;20002;-63
2023/12/24 06:32:03;;;;;;;;;;;;;;;;;;5092834;28;20007;-63
2023/12/24 06:34:29;;;;;;;;;;;;;;;;;;5090683;28;20054;-63
2023/12/24 06:36:55;;;;;;;;;;;;;;;;;;5091936;28;19912;-63
2023/12/24 06:39:21;;;;;;;;;;;;;;;;;;5088905;28;19947;-63
2023/12/24 06:41:47;;;;;;;;;;;;;;;;;;5089330;28;19944;-63
2023/12/24 06:44:13;;;;;;;;;;;;;;;;;;5091577;28;19920;-63
2023/12/24 06:46:39;;;;;;;;;;;;;;;;;;5086734;28;19920;-63
2023/12/24 06:49:05;;;;;;;;;;;;;;;;;;5092077;28;19947;-63
2023/12/24 06:51:31;;;;;;;;;;;;;;;;;;5091826;28;19964;-63
2023/12/24 06:53:57;;;;;;;;;;;;;;;;;;5089676;28;20015;-63
2023/12/24 06:56:23;;;;;;;;;;;;;;;;;;5090751;28;19923;-63
2023/12/24 06:58:48;;;;;;;;;;;;;;;;;;5092173;28;19916;-63
2023/12/24 07:01:14;;;;;;;;;;;;;;;;;;5086277;28;19994;-63
2023/12/24 07:03:41;;;;;;;;;;;;;;;;;;5090499;28;19913;-63
2023/12/24 07:06:07;;;;;;;;;;;;;;;;;;5091116;28;19944;-63
2023/12/24 07:08:33;;;;;;;;;;;;;;;;;;5092275;28;19931;-63
2023/12/24 07:10:59;;;;;;;;;;;;;;;;;;5090309;28;20410;-62
2023/12/24 07:13:25;;;;;;;;;;;;;;;;;;5085412;28;19965;-62
2023/12/24 07:15:52;;;;;;;;;;;;;;;;;;5091104;28;19920;-62
2023/12/24 07:18:17;;;;;;;;;;;;;;;;;;5091252;28;19919;-62
2023/12/24 07:20:44;;;;;;;;;;;;;;;;;;5090156;28;20291;-62
2023/12/24 07:23:10;;;;;;;;;;;;;;;;;;5086795;28;20280;-62
2023/12/24 07:25:36;;;;;;;;;;;;;;;;;;5090281;28;19912;-62
2023/12/24 07:28:02;;;;;;;;;;;;;;;;;;5088608;28;19960;-62
2023/12/24 07:30:29;;;;;;;;;;;;;;;;;;5089446;28;19969;-63
2023/12/24 07:32:55;;;;;;;;;;;;;;;;;;5088748;28;19951;-62
2023/12/24 07:35:21;;;;;;;;;;;;;;;;;;5087361;28;20011;-62
2023/12/24 07:37:48;;;;;;;;;;;;;;;;;;5088573;28;19912;-62
2023/12/24 07:40:14;;;;;;;;;;;;;;;;;;5088857;28;19970;-63
2023/12/24 07:42:40;;;;;;;;;;;;;;;;;;5081431;28;19959;-63
2023/12/24 07:45:05;;;;;;;;;;;;;;;;;;5088328;28;20307;-63
2023/12/24 07:47:31;;;;;;;;;;;;;;;;;;5087769;28;19960;-62
2023/12/24 07:49:57;;;;;;;;;;;;;;;;;;5094090;28;19986;-62
2023/12/24 07:52:23;;;;;;;;;;;;;;;;;;5095235;28;19946;-62
2023/12/24 07:54:49;;;;;;;;;;;;;;;;;;5094638;28;19920;-62
2023/12/24 07:57:15;;;;;;;;;;;;;;;;;;5095408;28;19908;-62
2023/12/24 07:59:41;;;;;;;;;;;;;;;;;;5090991;28;19913;-63
2023/12/24 08:02:07;;;;;;;;;;;;;;;;;;5089809;28;19944;-62
2023/12/24 08:04:33;;;;;;;;;;;;;;;;;;5090529;28;19951;-63
2023/12/24 08:06:59;;;;;;;;;;;;;;;;;;5093074;28;19916;-62
2023/12/24 08:09:25;;;;;;;;;;;;;;;;;;5089016;28;20308;-62
2023/12/24 08:11:51;;;;;;;;;;;;;;;;;;5086998;28;20015;-63
2023/12/24 08:14:17;;;;;;;;;;;;;;;;;;5092275;28;20002;-64
2023/12/24 08:16:43;;;;;;;;;;;;;;;;;;5087435;28;20462;-63
2023/12/24 08:19:09;;;;;;;;;;;;;;;;;;5083888;28;19956;-63
2023/12/24 08:21:35;;;;;;;;;;;;;;;;;;5082216;28;19955;-62
2023/12/24 08:24:01;;;;;;;;;;;;;;;;;;5088516;28;19916;-64
2023/12/24 08:26:27;;;;;;;;;;;;;;;;;;5086686;28;20386;-64
2023/12/24 08:28:53;;;;;;;;;;;;;;;;;;5089485;28;20000;-63
2023/12/24 08:31:19;;;;;;;;;;;;;;;;;;5082623;28;20271;-62
2023/12/24 08:33:45;;;;;;;;;;;;;;;;;;5091057;28;19923;-63
2023/12/24 08:36:11;;;;;;;;;;;;;;;;;;5082751;28;20003;-62
2023/12/24 08:38:37;;;;;;;;;;;;;;;;;;5085439;28;20628;-63
2023/12/24 08:41:02;;;;;;;;;;;;;;;;;;5085736;28;19943;-63
2023/12/24 08:43:28;;;;;;;;;;;;;;;;;;5089602;28;19958;-63
2023/12/24 08:45:59;;;;;;;;;;;;;;;;;;5081722;28;20364;-63
2023/12/24 08:48:25;;;;;;;;;;;;;;;;;;5075358;28;19920;-63
2023/12/24 08:50:50;;;;;;;;;;;;;;;;;;5079271;28;19918;-63
2023/12/24 08:53:16;;;;;;;;;;;;;;;;;;5088611;28;20333;-63
2023/12/24 08:55:42;;;;;;;;;;;;;;;;;;5085262;28;19955;-63
2023/12/24 08:58:08;;;;;;;;;;;;;;;;;;5083478;28;20306;-63
2023/12/24 09:00:34;;;;;;;;;;;;;;;;;;5084455;28;19912;-62
2023/12/24 09:03:00;;;;;;;;;;;;;;;;;;5085923;28;19916;-63
2023/12/24 09:05:26;;;;;;;;;;;;;;;;;;5093957;28;19923;-64
2023/12/24 09:07:52;;;;;;;;;;;;;;;;;;5092446;28;20257;-63
2023/12/24 09:10:18;;;;;;;;;;;;;;;;;;5092769;28;20400;-63
2023/12/24 09:12:44;;;;;;;;;;;;;;;;;;5090255;28;20352;-63
2023/12/24 09:15:10;;;;;;;;;;;;;;;;;;5091809;28;19991;-63
2023/12/24 09:17:35;;;;;;;;;;;;;;;;;;5090657;28;19967;-63
2023/12/24 09:20:01;;;;;;;;;;;;;;;;;;5089959;28;19931;-63
2023/12/24 09:22:27;;;;;;;;;;;;;;;;;;5084201;28;19916;-63
2023/12/24 09:24:53;;;;;;;;;;;;;;;;;;5092664;28;20006;-63
2023/12/24 09:27:19;;;;;;;;;;;;;;;;;;5087014;28;19920;-63
2023/12/24 09:29:45;;;;;;;;;;;;;;;;;;5090954;28;19923;-62
2023/12/24 09:32:11;;;;;;;;;;;;;;;;;;5089873;28;19912;-62
2023/12/24 09:34:37;;;;;;;;;;;;;;;;;;5091884;28;19995;-62
2023/12/24 09:37:03;;;;;;;;;;;;;;;;;;5087492;28;19920;-63
2023/12/24 09:39:29;;;;;;;;;;;;;;;;;;5087242;28;20003;-62
2023/12/24 09:41:55;;;;;;;;;;;;;;;;;;5085230;28;20373;-62
2023/12/24 09:44:22;;;;;;;;;;;;;;;;;;5080947;28;19912;-62
2023/12/24 09:46:48;;;;;;;;;;;;;;;;;;5082292;28;19912;-63
2023/12/24 09:49:14;;;;;;;;;;;;;;;;;;5074813;28;19917;-63
2023/12/24 09:51:41;;;;;;;;;;;;;;;;;;5085294;28;20295;-63
2023/12/24 09:54:06;;;;;;;;;;;;;;;;;;5083888;28;19919;-62
2023/12/24 09:56:32;;;;;;;;;;;;;;;;;;5087460;28;19912;-62
2023/12/24 09:58:58;;;;;;;;;;;;;;;;;;5090952;28;19962;-62
2023/12/24 10:01:24;;;;;;;;;;;;;;;;;;5081575;28;19916;-62
2023/12/24 10:03:50;;;;;;;;;;;;;;;;;;5091411;28;20368;-64
2023/12/24 10:06:16;;;;;;;;;;;;;;;;;;5090402;28;19916;-62
2023/12/24 10:08:42;;;;;;;;;;;;;;;;;;5090377;28;20399;-62
2023/12/24 10:11:08;;;;;;;;;;;;;;;;;;5087607;28;19919;-62
2023/12/24 10:13:34;;;;;;;;;;;;;;;;;;5089785;28;19923;-64
2023/12/24 10:16:00;;;;;;;;;;;;;;;;;;5082298;28;19938;-62
2023/12/24 10:18:25;;;;;;;;;;;;;;;;;;5085985;28;20022;-62
2023/12/24 10:20:51;;;;;;;;;;;;;;;;;;5091356;28;20444;-63
2023/12/24 10:23:17;;;;;;;;;;;;;;;;;;5092480;28;19912;-65
2023/12/24 10:25:43;;;;;;;;;;;;;;;;;;5084397;28;20327;-65
2023/12/24 10:28:09;;;;;;;;;;;;;;;;;;5091504;28;19970;-64
2023/12/24 10:30:35;;;;;;;;;;;;;;;;;;5091375;28;19912;-65
2023/12/24 10:33:01;;;;;;;;;;;;;;;;;;5088532;28;19963;-62
2023/12/24 10:35:27;;;;;;;;;;;;;;;;;;5091149;28;20003;-62
2023/12/24 10:37:53;;;;;;;;;;;;;;;;;;5085717;28;19916;-63
2023/12/24 10:40:18;;;;;;;;;;;;;;;;;;5089840;28;19958;-58
2023/12/24 10:42:44;;;;;;;;;;;;;;;;;;5082555;28;19916;-58
2023/12/24 10:45:11;;;;;;;;;;;;;;;;;;5086612;28;19992;-57
2023/12/24 10:47:38;;;;;;;;;;;;;;;;;;5091540;28;19927;-62
2023/12/24 10:50:04;;;;;;;;;;;;;;;;;;5090309;28;19961;-62
2023/12/24 10:52:30;;;;;;;;;;;;;;;;;;5079976;28;19916;-63
2023/12/24 10:54:56;;;;;;;;;;;;;;;;;;5090863;28;19918;-63
2023/12/24 10:57:23;;;;;;;;;;;;;;;;;;5086624;28;20509;-62
2023/12/24 10:59:49;;;;;;;;;;;;;;;;;;5091534;28;19946;-63
2023/12/24 11:02:15;;;;;;;;;;;;;;;;;;5091240;28;19948;-63
2023/12/24 11:04:42;;;;;;;;;;;;;;;;;;5089461;28;19919;-63
2023/12/24 11:07:07;;;;;;;;;;;;;;;;;;5091568;28;19928;-63
2023/12/24 11:09:33;;;;;;;;;;;;;;;;;;5078758;28;20336;-63
2023/12/24 11:11:59;;;;;;;;;;;;;;;;;;5085552;28;19961;-63
2023/12/24 11:14:25;;;;;;;;;;;;;;;;;;5079601;28;19978;-63
2023/12/24 11:16:51;;;;;;;;;;;;;;;;;;5081277;28;19954;-64
2023/12/24 11:19:17;;;;;;;;;;;;;;;;;;5081710;28;19977;-63
2023/12/24 11:21:43;;;;;;;;;;;;;;;;;;5078302;28;19912;-63
2023/12/24 11:24:12;;;;;;;;;;;;;;;;;;5084120;28;19982;-63
2023/12/24 11:26:38;;;;;;;;;;;;;;;;;;5081108;28;20011;-63
2023/12/24 11:29:04;;;;;;;;;;;;;;;;;;5080831;28;20360;-63
2023/12/24 11:31:30;;;;;;;;;;;;;;;;;;5080276;28;19920;-63
2023/12/24 11:33:56;;;;;;;;;;;;;;;;;;5079517;28;19997;-64
2023/12/24 11:36:22;;;;;;;;;;;;;;;;;;5076584;28;19958;-63
2023/12/24 11:38:48;;;;;;;;;;;;;;;;;;5083411;28;19952;-64
2023/12/24 11:41:14;;;;;;;;;;;;;;;;;;5078846;28;19927;-63
2023/12/24 11:43:40;;;;;;;;;;;;;;;;;;5078895;28;20033;-63
2023/12/24 11:46:06;;;;;;;;;;;;;;;;;;5077164;28;20298;-63
2023/12/24 11:48:32;;;;;;;;;;;;;;;;;;5079734;28;19920;-63
2023/12/24 11:50:58;;;;;;;;;;;;;;;;;;5076725;28;19970;-62
2023/12/24 11:53:23;;;;;;;;;;;;;;;;;;5081504;28;19952;-63
2023/12/24 11:55:49;;;;;;;;;;;;;;;;;;5081947;28;19927;-63
2023/12/24 11:58:15;;;;;;;;;;;;;;;;;;5079548;28;19912;-63
2023/12/24 12:00:41;;;;;;;;;;;;;;;;;;5080325;28;20024;-63
2023/12/24 12:03:08;;;;;;;;;;;;;;;;;;5079989;28;20039;-63
2023/12/24 12:05:34;;;;;;;;;;;;;;;;;;5079346;28;20038;-63
2023/12/24 12:08:00;;;;;;;;;;;;;;;;;;5081819;28;20007;-63
2023/12/24 12:10:26;;;;;;;;;;;;;;;;;;5078927;28;19912;-64
2023/12/24 12:12:52;;;;;;;;;;;;;;;;;;5079298;28;20392;-62
2023/12/24 12:15:20;;;;;;;;;;;;;;;;;;5080624;28;19916;-63
2023/12/24 12:17:47;;;;;;;;;;;;;;;;;;5079938;28;19923;-63
2023/12/24 12:20:13;;;;;;;;;;;;;;;;;;5081033;28;19943;-63
2023/12/24 12:22:39;;;;;;;;;;;;;;;;;;5083154;28;19956;-64
2023/12/24 12:25:05;;;;;;;;;;;;;;;;;;5081484;28;19924;-64
2023/12/24 12:27:31;;;;;;;;;;;;;;;;;;5083185;28;19924;-62
2023/12/24 12:29:57;;;;;;;;;;;;;;;;;;5085197;28;20331;-64
2023/12/24 12:32:22;;;;;;;;;;;;;;;;;;5081711;28;19991;-64
2023/12/24 12:34:48;;;;;;;;;;;;;;;;;;5080374;28;20032;-63
2023/12/24 12:37:14;;;;;;;;;;;;;;;;;;5092523;28;20375;-64
2023/12/24 12:39:40;;;;;;;;;;;;;;;;;;5086430;28;19912;-63
2023/12/24 12:42:06;;;;;;;;;;;;;;;;;;5080119;28;20016;-64
2023/12/24 12:44:32;;;;;;;;;;;;;;;;;;5087094;28;19916;-63
2023/12/24 12:46:58;;;;;;;;;;;;;;;;;;5086033;28;19920;-63
2023/12/24 12:49:24;;;;;;;;;;;;;;;;;;5079781;28;19916;-63
2023/12/24 12:51:50;;;;;;;;;;;;;;;;;;5087980;28;19955;-64
2023/12/24 12:54:16;;;;;;;;;;;;;;;;;;5085477;28;20294;-64
2023/12/24 12:56:42;;;;;;;;;;;;;;;;;;5086425;28;20042;-63
2023/12/24 12:59:09;;;;;;;;;;;;;;;;;;5091602;28;19919;-63
2023/12/24 13:01:34;;;;;;;;;;;;;;;;;;5089911;28;19916;-63
2023/12/24 13:04:00;;;;;;;;;;;;;;;;;;5090982;28;19998;-63
2023/12/24 13:06:26;;;;;;;;;;;;;;;;;;5087441;28;19912;-64
2023/12/24 13:08:52;;;;;;;;;;;;;;;;;;5085900;28;20352;-63
2023/12/24 13:11:18;;;;;;;;;;;;;;;;;;5086763;28;19968;-63
2023/12/24 13:13:44;;;;;;;;;;;;;;;;;;5090568;28;20295;-63
2023/12/24 13:16:10;;;;;;;;;;;;;;;;;;5093466;28;19916;-63
2023/12/24 13:18:37;;;;;;;;;;;;;;;;;;5091821;28;19912;-63
2023/12/24 13:21:03;;;;;;;;;;;;;;;;;;5085863;28;19913;-63
2023/12/24 13:23:30;;;;;;;;;;;;;;;;;;5085481;28;19939;-63
2023/12/24 13:25:56;;;;;;;;;;;;;;;;;;5089231;28;19912;-63
2023/12/24 13:28:22;;;;;;;;;;;;;;;;;;5077670;28;20299;-63
2023/12/24 13:30:48;;;;;;;;;;;;;;;;;;5084243;28;19916;-63
2023/12/24 13:33:14;;;;;;;;;;;;;;;;;;5090614;28;19971;-64
2023/12/24 13:35:39;;;;;;;;;;;;;;;;;;5089011;28;20396;-63
2023/12/24 13:38:08;;;;;;;;;;;;;;;;;;5093075;28;19986;-63
2023/12/24 13:40:35;;;;;;;;;;;;;;;;;;5090835;28;19927;-63
2023/12/24 13:43:00;;;;;;;;;;;;;;;;;;5092734;28;19916;-62
2023/12/24 13:45:27;;;;;;;;;;;;;;;;;;5092442;28;19920;-63
2023/12/24 13:47:53;;;;;;;;;;;;;;;;;;5087875;28;19939;-63
2023/12/24 13:50:20;;;;;;;;;;;;;;;;;;5092631;28;19947;-63
2023/12/24 13:52:46;;;;;;;;;;;;;;;;;;5090933;28;19912;-63
2023/12/24 13:55:12;;;;;;;;;;;;;;;;;;5092136;28;20312;-63
2023/12/24 13:57:38;;;;;;;;;;;;;;;;;;5092908;28;19912;-63
2023/12/24 14:00:04;;;;;;;;;;;;;;;;;;5089005;28;19970;-62
2023/12/24 14:02:30;;;;;;;;;;;;;;;;;;5091682;28;20452;-63
2023/12/24 14:04:56;;;;;;;;;;;;;;;;;;5087850;28;20337;-63
2023/12/24 14:07:22;;;;;;;;;;;;;;;;;;5090443;28;19973;-63
2023/12/24 14:09:48;;;;;;;;;;;;;;;;;;5086565;28;19926;-63
2023/12/24 14:12:14;;;;;;;;;;;;;;;;;;5087844;28;20409;-63
2023/12/24 14:14:40;;;;;;;;;;;;;;;;;;5081410;28;19916;-64
2023/12/24 14:17:07;;;;;;;;;;;;;;;;;;5088502;28;19918;-63
2023/12/24 14:19:33;;;;;;;;;;;;;;;;;;5091883;28;20338;-63
2023/12/24 14:21:59;;;;;;;;;;;;;;;;;;5091707;28;19993;-63
2023/12/24 14:24:25;;;;;;;;;;;;;;;;;;5092222;28;19994;-62
2023/12/24 14:26:51;;;;;;;;;;;;;;;;;;5090535;28;20379;-63
2023/12/24 14:29:17;;;;;;;;;;;;;;;;;;5085732;28;19916;-62
2023/12/24 14:31:43;;;;;;;;;;;;;;;;;;5091485;28;19922;-63
2023/12/24 14:34:09;;;;;;;;;;;;;;;;;;5087795;28;20371;-64
2023/12/24 14:36:34;;;;;;;;;;;;;;;;;;5086019;28;19962;-62
2023/12/24 14:39:00;;;;;;;;;;;;;;;;;;5092491;28;20341;-62
2023/12/24 14:41:28;;;;;;;;;;;;;;;;;;5092693;28;19908;-62
2023/12/24 14:43:54;;;;;;;;;;;;;;;;;;5092215;28;20191;-63
2023/12/24 14:46:19;;;;;;;;;;;;;;;;;;5089459;28;20396;-62
2023/12/24 14:48:46;;;;;;;;;;;;;;;;;;5083424;28;19916;-62
2023/12/24 14:51:11;;;;;;;;;;;;;;;;;;5089499;28;19988;-62
2023/12/24 14:53:38;;;;;;;;;;;;;;;;;;5092819;28;20423;-62
2023/12/24 14:56:04;;;;;;;;;;;;;;;;;;5092935;28;19912;-62
2023/12/24 14:58:30;;;;;;;;;;;;;;;;;;5085947;28;19946;-61
2023/12/24 15:00:56;;;;;;;;;;;;;;;;;;5090105;28;20003;-62
2023/12/24 15:03:24;;;;;;;;;;;;;;;;;;5078795;28;19912;-62
2023/12/24 15:05:50;;;;;;;;;;;;;;;;;;5084165;28;19915;-61
2023/12/24 15:08:16;;;;;;;;;;;;;;;;;;5089568;28;19955;-61
2023/12/24 15:10:42;;;;;;;;;;;;;;;;;;5092369;28;19958;-61
2023/12/24 15:13:08;;;;;;;;;;;;;;;;;;5087907;28;19913;-62
2023/12/24 15:15:34;;;;;;;;;;;;;;;;;;5080907;28;20337;-63
2023/12/24 15:18:00;;;;;;;;;;;;;;;;;;5083462;28;19912;-68
2023/12/24 15:20:26;;;;;;;;;;;;;;;;;;5092278;28;20049;-59
2023/12/24 15:22:52;;;;;;;;;;;;;;;;;;5089174;28;20340;-60
2023/12/24 15:25:17;;;;;;;;;;;;;;;;;;5092480;28;19912;-61
2023/12/24 15:27:43;;;;;;;;;;;;;;;;;;5085085;28;19924;-62
2023/12/24 15:30:09;;;;;;;;;;;;;;;;;;5090544;28;19916;-60
2023/12/24 15:32:35;;;;;;;;;;;;;;;;;;5092328;28;20003;-61
2023/12/24 15:35:01;;;;;;;;;;;;;;;;;;5091427;28;20439;-59
2023/12/24 15:37:27;;;;;;;;;;;;;;;;;;5092357;28;20042;-60
2023/12/24 15:39:53;;;;;;;;;;;;;;;;;;5088687;28;19920;-61
2023/12/24 15:42:19;;;;;;;;;;;;;;;;;;5092189;28;20421;-59
2023/12/24 15:44:47;;;;;;;;;;;;;;;;;;5089314;28;19916;-59
2023/12/24 15:47:13;;;;;;;;;;;;;;;;;;5089479;28;19916;-61
2023/12/24 15:49:39;;;;;;;;;;;;;;;;;;5083813;28;19919;-59
2023/12/24 15:52:05;;;;;;;;;;;;;;;;;;5088617;28;20368;-59
2023/12/24 15:54:31;;;;;;;;;;;;;;;;;;5088401;28;19973;-61
2023/12/24 15:56:57;;;;;;;;;;;;;;;;;;5089922;28;20292;-60
2023/12/24 15:59:23;;;;;;;;;;;;;;;;;;5092096;28;20374;-59
2023/12/24 16:01:50;;;;;;;;;;;;;;;;;;5080221;28;19946;-60
2023/12/24 16:04:16;;;;;;;;;;;;;;;;;;5092112;28;20387;-60
2023/12/24 16:06:42;;;;;;;;;;;;;;;;;;5089191;28;19954;-60
2023/12/24 16:09:09;;;;;;;;;;;;;;;;;;5090887;28;19970;-59
2023/12/24 16:11:36;;;;;;;;;;;;;;;;;;5093032;28;19912;-58
2023/12/24 16:14:02;;;;;;;;;;;;;;;;;;5084006;28;19920;-60
2023/12/24 16:16:27;;;;;;;;;;;;;;;;;;5095192;28;19951;-59
2023/12/24 16:18:53;;;;;;;;;;;;;;;;;;5087341;28;19959;-61
2023/12/24 16:21:19;;;;;;;;;;;;;;;;;;5088183;28;19963;-58
2023/12/24 16:23:45;;;;;;;;;;;;;;;;;;5087990;28;20010;-59
2023/12/24 16:26:11;;;;;;;;;;;;;;;;;;5093372;28;19908;-61
2023/12/24 16:28:37;;;;;;;;;;;;;;;;;;5093571;28;19987;-59
2023/12/24 16:31:03;;;;;;;;;;;;;;;;;;5094571;28;19961;-63
2023/12/24 16:33:29;;;;;;;;;;;;;;;;;;5093813;28;19952;-63
2023/12/24 16:35:55;;;;;;;;;;;;;;;;;;5095601;28;19912;-63